Latest Weather Observations for Gove Airport

IDD60801

Issued at 2:01 pm CST Monday 3 August 2015 (issued every 30 minutes, with the page automatically refreshed every 10 minutes)

About weather observations | Map of weather stations | Latest weather observations for NT | Other Formats
Station Details ID: 014508 Name: GOVE AIRPORT Lat: -12.27 Lon: 136.82 Height: 51.6 m
Data from the previous 72 hours. | See also: Recent months at Gove Airport
Date/Time
CST
Temp
°C
App
Temp
°C
Dew
Point
Rel
Hum
%
Delta-T
°C
Wind Press
QNH
hPa
Press
MSL
hPa
Rain
since 9 am
mm
Dir
 
Spd
km/h
Gust
km/h
Spd
kts
Gust
kts
03/02:00pm 28.2 26.3 16.8 50 7.1 E 22 33 12 18 1015.4 - 0.2
03/01:30pm 28.4 26.1 16.7 49 7.3 ESE 24 32 13 17 1015.8 - 0.2
03/01:00pm 28.3 26.2 17.2 51 7.0 E 24 35 13 19 1016.1 - 0.2
03/12:30pm 28.3 26.2 17.2 51 7.0 E 24 39 13 21 1016.4 - 0.2
03/12:00pm 27.9 25.4 18.0 55 6.3 ESE 28 35 15 19 1016.7 1016.5 0.2
03/11:00am 28.0 26.9 19.4 59 5.6 ESE 24 33 13 18 1017.2 - 0.2
03/10:30am 26.9 25.5 18.8 61 5.2 ESE 24 33 13 18 1017.5 - 0.2
03/10:00am 26.4 25.1 19.1 64 4.7 E 24 32 13 17 1017.5 - 0.2
03/09:30am 26.2 25.4 19.2 65 4.5 E 22 28 12 15 1017.5 - 0.0
03/09:00am 25.6 25.2 19.4 68 4.0 E 20 28 11 15 1017.3 1017.1 1.4
03/08:30am 24.6 26.0 20.3 77 2.8 E 13 17 7 9 1017.0 - 1.4
03/08:00am 23.2 24.6 20.4 84 1.8 E 13 17 7 9 1016.7 - 1.4
03/07:30am 20.8 22.5 20.2 96 0.4 ESE 11 13 6 7 1016.5 - 1.4
03/06:30am 18.4 19.5 18.1 98 0.2 N 9 9 5 5 1015.9 - 1.4
03/06:00am 18.4 19.6 18.2 99 0.1 N 9 9 5 5 1015.6 1015.4 1.4
03/05:30am 17.4 18.5 17.1 98 0.2 N 7 9 4 5 1015.4 - 1.4
03/05:00am 17.3 18.9 16.8 97 0.3 S 4 6 2 3 1015.2 - 1.4
03/04:30am 17.4 19.3 16.7 96 0.4 S 2 7 1 4 1015.2 - 1.4
03/04:00am 17.4 18.5 17.1 98 0.2 S 7 9 4 5 1015.1 - 1.4
03/03:30am 17.8 20.2 17.1 96 0.4 CALM 0 0 0 0 1015.3 - 1.4
03/03:00am 18.4 20.7 17.6 95 0.5 SSE 2 7 1 4 1015.5 1015.3 1.4
03/02:30am 18.6 21.5 18.1 97 0.3 CALM 0 0 0 0 1015.6 - 1.4
03/02:00am 18.9 21.8 18.1 95 0.5 CALM 0 2 0 1 1015.9 - 1.4
03/01:30am 19.4 21.7 18.6 95 0.5 S 4 7 2 4 1016.2 - 1.4
03/01:00am 20.5 22.7 19.6 95 0.6 SSE 7 9 4 5 1016.4 - 1.4
03/12:30am 20.3 22.5 19.5 95 0.5 SSE 7 9 4 5 1016.5 - 1.4
03/12:00am 20.6 22.8 19.5 93 0.7 SSE 7 9 4 5 1016.7 1016.5 1.4
 
Date/Time
CST
Temp
°C
App
Temp
°C
Dew
Point
Rel
Hum
%
Delta-T
°C
Wind Press
QNH
hPa
Press
MSL
hPa
Rain
since 9 am
mm
Dir
 
Spd
km/h
Gust
km/h
Spd
kts
Gust
kts
02/11:30pm 20.9 23.2 19.8 93 0.7 SSE 7 9 4 5 1016.7 - 1.4
02/11:00pm 20.8 23.0 19.7 93 0.7 SE 7 9 4 5 1016.8 - 1.4
02/10:30pm 21.3 23.5 19.7 91 1.0 SSE 7 9 4 5 1016.9 - 1.4
02/10:00pm 21.9 23.9 19.9 88 1.3 SE 9 11 5 6 1016.7 - 1.4
02/09:30pm 22.3 23.9 20.0 87 1.5 SE 11 13 6 7 1016.5 - 1.4
02/09:00pm 22.6 24.2 20.0 85 1.7 E 11 17 6 9 1016.4 1016.2 1.4
02/08:30pm 22.9 24.2 20.1 84 1.8 E 13 17 7 9 1016.3 - 1.4
02/08:00pm 23.1 24.5 20.3 84 1.8 E 13 17 7 9 1016.1 - 1.4
02/07:30pm 23.0 24.3 20.2 84 1.8 ESE 13 17 7 9 1015.7 - 1.4
02/07:00pm 23.1 24.9 20.3 84 1.8 SE 11 19 6 10 1015.4 - 1.4
02/06:30pm 23.7 24.9 20.0 80 2.4 ESE 13 15 7 8 1015.2 - 1.4
02/06:00pm 24.6 25.2 20.3 77 2.8 SE 17 24 9 13 1015.1 1014.9 1.4
02/05:30pm 25.3 24.6 20.2 73 3.3 ESE 24 30 13 16 1014.8 - 1.4
02/05:00pm 25.9 25.9 20.2 71 3.7 ESE 20 28 11 15 1014.6 - 1.4
02/04:30pm 26.2 24.8 19.6 67 4.3 ESE 26 33 14 18 1014.5 - 1.4
02/04:00pm 26.4 25.6 20.8 71 3.7 E 26 32 14 17 1014.3 - 1.4
02/03:30pm 25.0 26.1 22.0 83 2.0 ESE 19 24 10 13 1014.5 - 1.4
02/03:00pm 24.2 24.9 22.3 89 1.3 ESE 22 32 12 17 1014.6 1014.4 1.4
02/02:49pm 26.0 26.3 21.5 76 3.0 SE 22 32 12 17 1014.6 - 0.4
02/02:30pm 27.1 27.0 20.7 68 4.2 ESE 22 33 12 18 1014.8 - 0.4
02/02:00pm 27.1 27.6 21.1 69 4.0 SE 20 28 11 15 1015.2 - 0.4
02/01:30pm 27.3 25.7 19.1 61 5.3 SE 26 37 14 20 1015.6 - 0.4
02/01:00pm 27.2 25.2 17.5 55 6.1 E 24 39 13 21 1015.9 - 0.4
02/12:30pm 26.0 24.2 19.5 67 4.2 ESE 28 41 15 22 1016.2 - 0.4
02/12:00pm 26.3 26.7 20.7 71 3.7 SE 19 32 10 17 1016.4 1016.2 0.0
02/11:30am 26.9 26.0 20.7 69 4.1 ESE 26 35 14 19 1016.8 - 0.0
02/11:00am 26.9 26.4 20.7 69 4.1 ESE 24 35 13 19 1017.0 - 0.0
02/10:30am 25.9 25.4 19.9 69 3.9 SE 22 30 12 16 1017.4 - 0.0
02/10:00am 24.7 24.4 19.6 73 3.3 ESE 20 26 11 14 1017.7 - 0.0
02/09:30am 24.3 24.0 19.5 74 3.1 ESE 20 28 11 15 1017.5 - 0.0
02/09:00am 23.6 24.7 21.2 86 1.6 E 17 28 9 15 1017.6 1017.4 1.0
02/08:30am 22.8 24.0 21.4 92 0.9 ESE 17 20 9 11 1017.4 - 1.0
02/08:18am 23.2 25.0 21.1 88 1.4 ESE 13 20 7 11 1017.2 - 0.4
02/08:00am 23.1 24.4 20.8 87 1.5 E 15 24 8 13 1016.9 - 0.4
02/07:30am 22.2 24.3 21.0 93 0.8 SSE 11 15 6 8 1016.6 - 0.4
02/07:00am 21.1 23.3 20.3 95 0.5 ESE 9 11 5 6 1016.3 - 0.2
02/06:30am 21.0 23.1 20.2 95 0.5 SE 9 11 5 6 1016.0 - 0.2
02/06:00am 20.5 22.4 19.7 95 0.5 SSE 9 11 5 6 1015.7 1015.5 0.2
02/05:30am 20.4 22.6 19.3 93 0.7 N 6 7 3 4 1015.3 - 0.2
02/05:00am 20.6 22.9 19.8 95 0.5 SE 7 11 4 6 1015.2 - 0.2
02/04:30am 20.3 22.4 19.4 95 0.6 NNE 7 11 4 6 1015.2 - 0.2
02/04:00am 20.4 22.1 19.3 93 0.7 N 9 11 5 6 1015.2 - 0.2
02/03:30am 20.4 22.2 19.5 95 0.6 SSE 9 11 5 6 1015.1 - 0.2
02/03:00am 20.9 23.1 19.6 92 0.8 SE 7 9 4 5 1015.1 1014.9 0.2
02/02:30am 20.8 22.6 19.5 92 0.8 SE 9 13 5 7 1015.1 - 0.2
02/02:00am 21.1 23.3 19.7 92 0.9 SSE 7 9 4 5 1015.3 - 0.2
02/01:30am 20.8 22.5 19.4 92 0.9 SE 9 11 5 6 1015.3 - 0.2
02/01:00am 21.1 22.8 19.4 90 1.1 SSE 9 11 5 6 1015.5 - 0.2
02/12:30am 21.3 23.0 19.4 89 1.2 ESE 9 9 5 5 1015.6 - 0.2
02/12:00am 21.5 23.3 19.5 88 1.3 SE 9 11 5 6 1015.7 1015.5 0.2
 
Date/Time
CST
Temp
°C
App
Temp
°C
Dew
Point
Rel
Hum
%
Delta-T
°C
Wind Press
QNH
hPa
Press
MSL
hPa
Rain
since 9 am
mm
Dir
 
Spd
km/h
Gust
km/h
Spd
kts
Gust
kts
01/11:30pm 21.7 23.8 19.3 86 1.5 ENE 7 9 4 5 1015.9 - 0.2
01/11:00pm 22.5 23.8 19.4 82 2.0 SE 11 15 6 8 1015.8 - 0.2
01/10:30pm 22.8 23.8 19.4 81 2.2 SE 13 17 7 9 1016.0 - 0.2
01/10:00pm 22.6 23.9 19.3 81 2.1 SE 11 15 6 8 1016.0 - 0.2
01/09:30pm 22.8 23.7 19.2 80 2.3 E 13 17 7 9 1015.8 - 0.2
01/09:00pm 22.9 23.7 19.1 79 2.4 ENE 13 17 7 9 1015.5 1015.3 0.2
01/08:30pm 22.7 24.4 19.4 81 2.1 SE 9 13 5 7 1015.2 - 0.2
01/08:00pm 23.0 24.3 19.4 80 2.3 E 11 15 6 8 1014.9 - 0.2
01/07:30pm 23.4 24.3 19.2 77 2.7 SE 13 17 7 9 1014.4 - 0.2
01/07:00pm 23.5 24.3 19.1 76 2.8 SE 13 17 7 9 1014.1 - 0.2
01/06:30pm 24.0 24.8 19.0 73 3.2 ESE 13 17 7 9 1013.9 - 0.2
01/06:00pm 24.6 24.1 19.0 71 3.6 SE 20 30 11 16 1013.9 1013.6 0.2
01/05:30pm 25.4 25.2 18.6 66 4.3 E 17 22 9 12 1013.7 - 0.2
01/05:00pm 26.3 25.1 18.5 62 5.0 ESE 22 30 12 16 1013.6 - 0.2
01/04:30pm 26.6 24.9 18.1 59 5.4 ESE 24 33 13 18 1013.5 - 0.2
01/04:00pm 26.6 25.0 18.3 60 5.3 ESE 24 32 13 17 1013.4 - 0.2
01/03:30pm 27.6 26.2 18.0 55 6.1 ESE 22 32 12 17 1013.5 - 0.2
01/03:00pm 27.3 25.8 17.6 55 6.1 E 22 32 12 17 1013.6 1013.3 0.2
01/02:30pm 27.1 25.6 17.8 56 5.9 ESE 22 32 12 17 1013.8 - 0.2
01/02:00pm 27.4 25.4 17.4 54 6.3 ESE 24 33 13 18 1014.1 - 0.2
01/01:30pm 27.3 24.9 17.3 54 6.3 ESE 26 35 14 19 1014.4 - 0.2
01/01:00pm 28.1 25.0 16.5 49 7.2 ESE 28 39 15 21 1014.8 - 0.2
01/12:30pm 28.0 25.4 15.8 47 7.5 ESE 24 33 13 18 1015.2 - 0.2
01/12:00pm 28.1 25.3 15.3 45 7.8 ESE 24 35 13 19 1015.7 1015.5 0.2
01/11:30am 28.3 25.8 16.2 47 7.5 E 24 39 13 21 1016.0 - 0.2
01/11:00am 27.5 24.3 15.2 47 7.5 E 26 33 14 18 1016.4 - 0.2
01/10:30am 27.6 24.5 18.4 57 5.9 ESE 32 39 17 21 1016.6 - 0.2
01/10:00am 26.9 24.7 18.6 60 5.3 E 28 41 15 22 1016.6 - 0.0
01/09:30am 26.6 25.3 19.0 63 4.9 E 24 33 13 18 1016.6 - 0.0
01/09:00am 25.6 24.1 18.5 65 4.5 E 24 35 13 19 1016.4 1016.2 1.0
01/08:30am 24.4 26.2 21.1 82 2.2 E 13 19 7 10 1016.1 - 1.0
01/08:00am 22.9 25.2 21.4 91 1.0 E 11 13 6 7 1015.6 - 1.0
01/07:30am 22.1 23.7 20.7 92 0.9 E 13 19 7 10 1015.3 - 1.0
01/07:15am 21.0 23.1 20.1 95 0.6 NE 9 9 5 5 1015.2 - 0.2
01/07:00am 21.0 22.9 19.7 92 0.8 NNE 9 13 5 7 1014.9 - 0.0
01/06:30am 20.4 22.6 19.6 95 0.5 S 7 9 4 5 1014.7 - 0.0
01/06:00am 20.0 22.1 19.4 96 0.4 NNE 7 9 4 5 1014.4 1014.1 0.0
01/05:30am 19.9 21.4 18.9 94 0.6 NNE 9 11 5 6 1014.3 - 0.0
01/05:00am 19.6 21.1 19.0 96 0.4 N 9 11 5 6 1014.2 - 0.0
01/04:30am 18.4 21.1 17.7 96 0.4 CALM 0 0 0 0 1014.4 - 0.0
01/04:00am 18.4 20.4 17.9 97 0.3 N 4 6 2 3 1014.3 - 0.0
01/03:30am 18.3 19.8 17.5 95 0.5 SE 6 7 3 4 1014.2 - 0.0
01/03:00am 18.5 19.9 17.8 96 0.4 N 7 9 4 5 1014.2 1013.9 0.0
01/02:30am 18.4 19.9 17.6 95 0.5 S 6 9 3 5 1014.4 - 0.0
01/02:00am 19.6 20.7 18.1 91 0.9 S 9 11 5 6 1014.7 - 0.0
01/01:30am 20.5 22.0 18.9 90 1.0 SSE 9 11 5 6 1015.1 - 0.0
01/01:00am 20.3 21.7 18.7 90 1.0 SE 9 11 5 6 1015.1 - 0.0
01/12:30am 20.9 22.4 19.0 89 1.2 SSE 9 9 5 5 1015.3 - 0.0
01/12:00am 21.0 22.6 19.1 89 1.2 ESE 9 13 5 7 1015.4 1015.2 0.0
 
Date/Time
CST
Temp
°C
App
Temp
°C
Dew
Point
Rel
Hum
%
Delta-T
°C
Wind Press
QNH
hPa
Press
MSL
hPa
Rain
since 9 am
mm
Dir
 
Spd
km/h
Gust
km/h
Spd
kts
Gust
kts
31/11:30pm 20.9 22.2 19.2 90 1.1 ENE 11 13 6 7 1015.4 - 0.0
31/11:00pm 20.2 21.7 18.8 92 0.9 SE 9 9 5 5 1015.6 - 0.0
31/10:30pm 20.5 22.0 18.9 90 1.0 NE 9 9 5 5 1015.6 - 0.0
31/10:00pm 20.7 22.6 19.0 90 1.1 N 7 9 4 5 1015.4 - 0.0
31/09:30pm 21.2 22.9 19.3 89 1.2 E 9 11 5 6 1015.1 - 0.0
31/09:00pm 21.0 22.7 19.3 90 1.1 SE 9 11 5 6 1014.9 1014.7 0.0
31/08:30pm 21.5 23.7 19.5 88 1.3 E 7 9 4 5 1014.8 - 0.0
31/08:00pm 21.9 23.8 19.7 87 1.4 E 9 9 5 5 1014.6 - 0.0
31/07:30pm 22.6 24.4 19.6 83 1.9 NNE 9 11 5 6 1014.2 - 0.0
31/07:00pm 23.2 25.0 19.6 80 2.3 ENE 9 11 5 6 1013.7 - 0.0
31/06:30pm 24.1 25.1 19.4 75 3.0 ESE 13 17 7 9 1013.5 - 0.0
31/06:00pm 24.8 24.6 19.4 72 3.5 ESE 19 24 10 13 1013.3 1013.0 0.0
31/05:30pm 25.7 25.2 19.0 66 4.3 E 20 28 11 15 1013.2 - 0.0
31/05:00pm 26.4 25.5 19.1 64 4.7 E 22 28 12 15 1013.2 - 0.0
31/04:30pm 26.5 25.3 19.2 64 4.7 E 24 32 13 17 1013.1 - 0.0
31/04:00pm 26.9 26.4 19.1 62 5.0 E 20 28 11 15 1013.0 - 0.0
31/03:30pm 26.5 25.8 19.6 66 4.5 E 22 32 12 17 1013.0 - 0.0
31/03:00pm 26.6 25.3 19.0 63 4.9 E 24 32 13 17 1013.3 1013.0 0.0
31/02:30pm 26.8 26.8 20.1 66 4.4 E 20 32 11 17 1013.6 - 0.0

Other Formats:

Comma delimited format used in spreadsheet applications
http://www.bom.gov.au/fwo/IDD60801/IDD60801.94150.axf

JavaScript Object Notation format (JSON) in row-major order
http://www.bom.gov.au/fwo/IDD60801/IDD60801.94150.json